sensor_id;sensor_type;location;lat;lon;timestamp;P1;durP1;ratioP1;P2;durP2;ratioP2
24435;SDS011;12616;52.470;13.436;2022-11-09T00:01:21;5.27;;;2.93;;
24435;SDS011;12616;52.470;13.436;2022-11-09T00:03:52;6.70;;;2.70;;
24435;SDS011;12616;52.470;13.436;2022-11-09T00:06:20;3.00;;;2.80;;
24435;SDS011;12616;52.470;13.436;2022-11-09T00:08:47;3.33;;;2.97;;
24435;SDS011;12616;52.470;13.436;2022-11-09T00:11:17;4.90;;;3.07;;
24435;SDS011;12616;52.470;13.436;2022-11-09T00:13:44;4.33;;;2.87;;
24435;SDS011;12616;52.470;13.436;2022-11-09T00:16:14;3.03;;;2.73;;
24435;SDS011;12616;52.470;13.436;2022-11-09T00:18:42;2.93;;;2.73;;
24435;SDS011;12616;52.470;13.436;2022-11-09T00:21:12;3.50;;;3.20;;
24435;SDS011;12616;52.470;13.436;2022-11-09T00:23:40;6.57;;;3.53;;
24435;SDS011;12616;52.470;13.436;2022-11-09T00:26:08;5.33;;;3.10;;
24435;SDS011;12616;52.470;13.436;2022-11-09T00:28:37;3.50;;;2.80;;
24435;SDS011;12616;52.470;13.436;2022-11-09T00:31:05;7.37;;;2.63;;
24435;SDS011;12616;52.470;13.436;2022-11-09T00:33:33;3.17;;;2.87;;
24435;SDS011;12616;52.470;13.436;2022-11-09T00:36:02;6.70;;;3.60;;
24435;SDS011;12616;52.470;13.436;2022-11-09T00:38:31;4.43;;;4.03;;
24435;SDS011;12616;52.470;13.436;2022-11-09T00:41:00;3.27;;;2.83;;
24435;SDS011;12616;52.470;13.436;2022-11-09T00:43:27;4.20;;;3.90;;
24435;SDS011;12616;52.470;13.436;2022-11-09T00:45:54;6.70;;;4.07;;
24435;SDS011;12616;52.470;13.436;2022-11-09T00:48:21;4.33;;;3.97;;
24435;SDS011;12616;52.470;13.436;2022-11-09T00:50:48;4.00;;;3.37;;
24435;SDS011;12616;52.470;13.436;2022-11-09T00:53:16;4.10;;;3.70;;
24435;SDS011;12616;52.470;13.436;2022-11-09T00:55:51;3.20;;;2.90;;
24435;SDS011;12616;52.470;13.436;2022-11-09T00:58:20;3.60;;;3.30;;
24435;SDS011;12616;52.470;13.436;2022-11-09T01:00:47;3.70;;;3.27;;
24435;SDS011;12616;52.470;13.436;2022-11-09T01:03:14;3.43;;;3.13;;
24435;SDS011;12616;52.470;13.436;2022-11-09T01:05:41;3.83;;;3.43;;
24435;SDS011;12616;52.470;13.436;2022-11-09T01:08:08;3.57;;;2.57;;
24435;SDS011;12616;52.470;13.436;2022-11-09T01:10:35;3.60;;;3.30;;
24435;SDS011;12616;52.470;13.436;2022-11-09T01:13:04;4.53;;;2.93;;
24435;SDS011;12616;52.470;13.436;2022-11-09T01:15:32;3.63;;;3.03;;
24435;SDS011;12616;52.470;13.436;2022-11-09T01:17:59;11.40;;;3.23;;
24435;SDS011;12616;52.470;13.436;2022-11-09T01:20:25;2.93;;;2.63;;
24435;SDS011;12616;52.470;13.436;2022-11-09T01:22:53;5.77;;;5.37;;
24435;SDS011;12616;52.470;13.436;2022-11-09T01:25:19;3.17;;;2.97;;
24435;SDS011;12616;52.470;13.436;2022-11-09T01:27:46;3.90;;;2.87;;
24435;SDS011;12616;52.470;13.436;2022-11-09T01:30:13;3.27;;;2.97;;
24435;SDS011;12616;52.470;13.436;2022-11-09T01:32:41;3.40;;;3.10;;
24435;SDS011;12616;52.470;13.436;2022-11-09T01:35:08;2.83;;;2.63;;
24435;SDS011;12616;52.470;13.436;2022-11-09T01:37:34;4.00;;;3.60;;
24435;SDS011;12616;52.470;13.436;2022-11-09T01:40:01;3.43;;;3.13;;
24435;SDS011;12616;52.470;13.436;2022-11-09T01:42:28;3.53;;;3.23;;
24435;SDS011;12616;52.470;13.436;2022-11-09T01:47:58;4.40;;;3.23;;
24435;SDS011;12616;52.470;13.436;2022-11-09T01:50:31;3.73;;;3.43;;
24435;SDS011;12616;52.470;13.436;2022-11-09T01:53:02;3.90;;;2.70;;
24435;SDS011;12616;52.470;13.436;2022-11-09T01:55:31;3.50;;;3.20;;
24435;SDS011;12616;52.470;13.436;2022-11-09T01:57:59;3.30;;;3.10;;
24435;SDS011;12616;52.470;13.436;2022-11-09T02:00:30;3.03;;;2.83;;
24435;SDS011;12616;52.470;13.436;2022-11-09T02:03:04;3.10;;;2.80;;
24435;SDS011;12616;52.470;13.436;2022-11-09T02:05:33;3.20;;;3.00;;
24435;SDS011;12616;52.470;13.436;2022-11-09T02:08:03;4.77;;;2.67;;
24435;SDS011;12616;52.470;13.436;2022-11-09T02:10:34;3.40;;;3.07;;
24435;SDS011;12616;52.470;13.436;2022-11-09T02:13:08;3.37;;;3.07;;
24435;SDS011;12616;52.470;13.436;2022-11-09T02:15:37;3.30;;;3.00;;
24435;SDS011;12616;52.470;13.436;2022-11-09T02:18:06;3.50;;;2.90;;
24435;SDS011;12616;52.470;13.436;2022-11-09T02:20:43;4.63;;;3.27;;
24435;SDS011;12616;52.470;13.436;2022-11-09T02:23:12;2.10;;;1.90;;
24435;SDS011;12616;52.470;13.436;2022-11-09T02:25:39;3.83;;;2.80;;
24435;SDS011;12616;52.470;13.436;2022-11-09T02:28:06;3.20;;;2.90;;
24435;SDS011;12616;52.470;13.436;2022-11-09T02:30:33;3.93;;;3.17;;
24435;SDS011;12616;52.470;13.436;2022-11-09T02:33:01;3.80;;;3.43;;
24435;SDS011;12616;52.470;13.436;2022-11-09T02:35:28;2.93;;;2.63;;
24435;SDS011;12616;52.470;13.436;2022-11-09T02:37:56;4.03;;;2.83;;
24435;SDS011;12616;52.470;13.436;2022-11-09T02:40:25;4.23;;;3.20;;
24435;SDS011;12616;52.470;13.436;2022-11-09T02:42:56;2.80;;;2.60;;
24435;SDS011;12616;52.470;13.436;2022-11-09T02:45:26;3.73;;;3.33;;
24435;SDS011;12616;52.470;13.436;2022-11-09T02:48:00;3.60;;;2.77;;
24435;SDS011;12616;52.470;13.436;2022-11-09T02:50:27;2.73;;;2.53;;
24435;SDS011;12616;52.470;13.436;2022-11-09T02:52:53;4.30;;;3.00;;
24435;SDS011;12616;52.470;13.436;2022-11-09T02:55:22;3.43;;;2.50;;
24435;SDS011;12616;52.470;13.436;2022-11-09T02:57:48;3.20;;;2.83;;
24435;SDS011;12616;52.470;13.436;2022-11-09T03:00:15;4.10;;;3.47;;
24435;SDS011;12616;52.470;13.436;2022-11-09T03:02:42;2.90;;;2.60;;
24435;SDS011;12616;52.470;13.436;2022-11-09T03:05:09;4.00;;;2.90;;
24435;SDS011;12616;52.470;13.436;2022-11-09T03:07:36;3.63;;;3.33;;
24435;SDS011;12616;52.470;13.436;2022-11-09T03:10:02;4.80;;;3.73;;
24435;SDS011;12616;52.470;13.436;2022-11-09T03:12:31;3.30;;;3.00;;
24435;SDS011;12616;52.470;13.436;2022-11-09T03:14:58;3.43;;;2.67;;
24435;SDS011;12616;52.470;13.436;2022-11-09T03:17:26;3.27;;;3.00;;
24435;SDS011;12616;52.470;13.436;2022-11-09T03:19:53;2.70;;;2.50;;
24435;SDS011;12616;52.470;13.436;2022-11-09T03:22:20;3.20;;;3.00;;
24435;SDS011;12616;52.470;13.436;2022-11-09T03:24:47;5.47;;;2.90;;
24435;SDS011;12616;52.470;13.436;2022-11-09T03:27:14;3.37;;;2.77;;
24435;SDS011;12616;52.470;13.436;2022-11-09T03:29:42;2.67;;;2.47;;
24435;SDS011;12616;52.470;13.436;2022-11-09T03:32:09;3.93;;;3.03;;
24435;SDS011;12616;52.470;13.436;2022-11-09T03:34:35;2.83;;;2.60;;
24435;SDS011;12616;52.470;13.436;2022-11-09T03:37:02;2.57;;;2.37;;
24435;SDS011;12616;52.470;13.436;2022-11-09T03:39:29;4.83;;;3.17;;
24435;SDS011;12616;52.470;13.436;2022-11-09T03:41:56;2.80;;;2.40;;
24435;SDS011;12616;52.470;13.436;2022-11-09T03:44:22;4.80;;;3.03;;
24435;SDS011;12616;52.470;13.436;2022-11-09T03:46:50;4.70;;;2.40;;
24435;SDS011;12616;52.470;13.436;2022-11-09T03:49:19;3.23;;;2.93;;
24435;SDS011;12616;52.470;13.436;2022-11-09T03:51:47;3.40;;;2.93;;
24435;SDS011;12616;52.470;13.436;2022-11-09T03:54:14;2.70;;;2.50;;
24435;SDS011;12616;52.470;13.436;2022-11-09T03:56:41;3.70;;;3.40;;
24435;SDS011;12616;52.470;13.436;2022-11-09T03:59:08;5.00;;;3.10;;
24435;SDS011;12616;52.470;13.436;2022-11-09T04:01:35;4.00;;;3.27;;
24435;SDS011;12616;52.470;13.436;2022-11-09T04:04:05;3.37;;;3.07;;
24435;SDS011;12616;52.470;13.436;2022-11-09T04:06:32;3.40;;;3.00;;
24435;SDS011;12616;52.470;13.436;2022-11-09T04:08:59;2.87;;;2.67;;
24435;SDS011;12616;52.470;13.436;2022-11-09T04:11:26;3.70;;;3.00;;
24435;SDS011;12616;52.470;13.436;2022-11-09T04:13:53;3.10;;;2.23;;
24435;SDS011;12616;52.470;13.436;2022-11-09T04:16:20;3.00;;;2.80;;
24435;SDS011;12616;52.470;13.436;2022-11-09T04:18:46;2.97;;;2.77;;
24435;SDS011;12616;52.470;13.436;2022-11-09T04:21:14;5.50;;;2.50;;
24435;SDS011;12616;52.470;13.436;2022-11-09T04:23:41;3.47;;;3.00;;
24435;SDS011;12616;52.470;13.436;2022-11-09T04:26:08;3.17;;;2.57;;
24435;SDS011;12616;52.470;13.436;2022-11-09T04:28:35;3.50;;;3.20;;
24435;SDS011;12616;52.470;13.436;2022-11-09T04:31:01;3.10;;;2.90;;
24435;SDS011;12616;52.470;13.436;2022-11-09T04:33:28;3.10;;;2.80;;
24435;SDS011;12616;52.470;13.436;2022-11-09T04:35:59;5.63;;;3.00;;
24435;SDS011;12616;52.470;13.436;2022-11-09T04:38:28;3.27;;;2.97;;
24435;SDS011;12616;52.470;13.436;2022-11-09T04:40:58;3.67;;;3.30;;
24435;SDS011;12616;52.470;13.436;2022-11-09T04:43:25;3.70;;;3.50;;
24435;SDS011;12616;52.470;13.436;2022-11-09T04:45:52;4.00;;;3.23;;
24435;SDS011;12616;52.470;13.436;2022-11-09T04:48:19;3.97;;;3.10;;
24435;SDS011;12616;52.470;13.436;2022-11-09T04:50:46;3.40;;;3.10;;
24435;SDS011;12616;52.470;13.436;2022-11-09T04:53:13;3.47;;;3.17;;
24435;SDS011;12616;52.470;13.436;2022-11-09T04:55:42;4.23;;;3.83;;
24435;SDS011;12616;52.470;13.436;2022-11-09T04:58:09;3.20;;;3.00;;
24435;SDS011;12616;52.470;13.436;2022-11-09T05:00:37;3.03;;;2.83;;
24435;SDS011;12616;52.470;13.436;2022-11-09T05:03:06;3.80;;;3.20;;
24435;SDS011;12616;52.470;13.436;2022-11-09T05:05:34;3.67;;;2.90;;
24435;SDS011;12616;52.470;13.436;2022-11-09T05:08:02;6.57;;;3.67;;
24435;SDS011;12616;52.470;13.436;2022-11-09T05:10:30;4.10;;;3.70;;
24435;SDS011;12616;52.470;13.436;2022-11-09T05:12:59;4.17;;;3.77;;
24435;SDS011;12616;52.470;13.436;2022-11-09T05:29:13;4.13;;;3.83;;
24435;SDS011;12616;52.470;13.436;2022-11-09T05:32:03;3.57;;;3.27;;
24435;SDS011;12616;52.470;13.436;2022-11-09T05:34:52;3.73;;;3.43;;
24435;SDS011;12616;52.470;13.436;2022-11-09T05:40:47;3.90;;;3.60;;
24435;SDS011;12616;52.470;13.436;2022-11-09T05:43:14;5.10;;;3.23;;
24435;SDS011;12616;52.470;13.436;2022-11-09T05:45:43;6.47;;;4.20;;
24435;SDS011;12616;52.470;13.436;2022-11-09T05:48:10;4.43;;;3.90;;
24435;SDS011;12616;52.470;13.436;2022-11-09T05:50:37;4.40;;;4.00;;
24435;SDS011;12616;52.470;13.436;2022-11-09T05:53:05;3.63;;;3.33;;
24435;SDS011;12616;52.470;13.436;2022-11-09T05:55:32;4.23;;;3.80;;
24435;SDS011;12616;52.470;13.436;2022-11-09T05:57:59;4.00;;;3.60;;
24435;SDS011;12616;52.470;13.436;2022-11-09T06:00:26;5.83;;;5.30;;
24435;SDS011;12616;52.470;13.436;2022-11-09T06:02:54;4.53;;;4.13;;
24435;SDS011;12616;52.470;13.436;2022-11-09T06:05:27;4.70;;;4.23;;
24435;SDS011;12616;52.470;13.436;2022-11-09T06:07:53;4.43;;;4.00;;
24435;SDS011;12616;52.470;13.436;2022-11-09T06:10:20;4.10;;;3.03;;
24435;SDS011;12616;52.470;13.436;2022-11-09T06:12:48;4.23;;;3.83;;
24435;SDS011;12616;52.470;13.436;2022-11-09T06:15:15;4.90;;;4.50;;
24435;SDS011;12616;52.470;13.436;2022-11-09T06:17:42;3.90;;;3.60;;
24435;SDS011;12616;52.470;13.436;2022-11-09T06:20:10;3.67;;;3.37;;
24435;SDS011;12616;52.470;13.436;2022-11-09T06:22:37;5.80;;;4.00;;
24435;SDS011;12616;52.470;13.436;2022-11-09T06:25:04;4.00;;;3.70;;
24435;SDS011;12616;52.470;13.436;2022-11-09T06:27:31;7.33;;;4.23;;
24435;SDS011;12616;52.470;13.436;2022-11-09T06:29:57;3.97;;;3.67;;
24435;SDS011;12616;52.470;13.436;2022-11-09T06:32:24;4.70;;;3.80;;
24435;SDS011;12616;52.470;13.436;2022-11-09T06:34:51;4.90;;;4.10;;
24435;SDS011;12616;52.470;13.436;2022-11-09T06:37:19;5.73;;;4.87;;
24435;SDS011;12616;52.470;13.436;2022-11-09T06:39:45;4.17;;;3.87;;
24435;SDS011;12616;52.470;13.436;2022-11-09T06:42:12;12.60;;;3.90;;
24435;SDS011;12616;52.470;13.436;2022-11-09T06:44:39;4.93;;;3.60;;
24435;SDS011;12616;52.470;13.436;2022-11-09T06:47:06;5.27;;;4.07;;
24435;SDS011;12616;52.470;13.436;2022-11-09T06:49:33;5.37;;;4.97;;
24435;SDS011;12616;52.470;13.436;2022-11-09T06:52:00;4.47;;;3.70;;
24435;SDS011;12616;52.470;13.436;2022-11-09T06:54:28;5.43;;;3.90;;
24435;SDS011;12616;52.470;13.436;2022-11-09T06:56:54;5.63;;;3.93;;
24435;SDS011;12616;52.470;13.436;2022-11-09T06:59:21;4.70;;;4.27;;
24435;SDS011;12616;52.470;13.436;2022-11-09T07:01:48;6.83;;;4.90;;
24435;SDS011;12616;52.470;13.436;2022-11-09T07:04:14;3.93;;;3.63;;
24435;SDS011;12616;52.470;13.436;2022-11-09T07:06:41;3.77;;;3.47;;
24435;SDS011;12616;52.470;13.436;2022-11-09T07:09:08;4.57;;;3.53;;
24435;SDS011;12616;52.470;13.436;2022-11-09T07:11:37;4.13;;;3.73;;
24435;SDS011;12616;52.470;13.436;2022-11-09T07:14:04;4.33;;;4.03;;
24435;SDS011;12616;52.470;13.436;2022-11-09T07:16:31;6.70;;;4.53;;
24435;SDS011;12616;52.470;13.436;2022-11-09T07:18:58;6.90;;;4.27;;
24435;SDS011;12616;52.470;13.436;2022-11-09T07:21:24;6.00;;;4.73;;
24435;SDS011;12616;52.470;13.436;2022-11-09T07:23:51;7.30;;;4.07;;
24435;SDS011;12616;52.470;13.436;2022-11-09T07:26:18;4.73;;;3.83;;
24435;SDS011;12616;52.470;13.436;2022-11-09T07:28:46;5.43;;;4.80;;
24435;SDS011;12616;52.470;13.436;2022-11-09T07:31:13;8.30;;;4.60;;
24435;SDS011;12616;52.470;13.436;2022-11-09T07:33:40;5.73;;;5.10;;
24435;SDS011;12616;52.470;13.436;2022-11-09T07:36:07;6.90;;;4.40;;
24435;SDS011;12616;52.470;13.436;2022-11-09T07:38:34;4.57;;;4.10;;
24435;SDS011;12616;52.470;13.436;2022-11-09T07:41:01;5.80;;;4.00;;
24435;SDS011;12616;52.470;13.436;2022-11-09T07:43:28;6.30;;;5.13;;
24435;SDS011;12616;52.470;13.436;2022-11-09T07:45:56;5.63;;;4.20;;
24435;SDS011;12616;52.470;13.436;2022-11-09T07:48:23;5.20;;;4.60;;
24435;SDS011;12616;52.470;13.436;2022-11-09T07:50:49;5.30;;;4.80;;
24435;SDS011;12616;52.470;13.436;2022-11-09T07:53:16;7.00;;;5.73;;
24435;SDS011;12616;52.470;13.436;2022-11-09T07:55:43;6.00;;;5.50;;
24435;SDS011;12616;52.470;13.436;2022-11-09T07:59:36;6.77;;;5.60;;
24435;SDS011;12616;52.470;13.436;2022-11-09T08:01:55;5.40;;;4.90;;
24435;SDS011;12616;52.470;13.436;2022-11-09T08:04:23;8.20;;;4.77;;
24435;SDS011;12616;52.470;13.436;2022-11-09T08:06:50;8.33;;;7.37;;
24435;SDS011;12616;52.470;13.436;2022-11-09T08:09:17;6.30;;;5.70;;
24435;SDS011;12616;52.470;13.436;2022-11-09T08:11:44;6.17;;;5.40;;
24435;SDS011;12616;52.470;13.436;2022-11-09T08:14:11;5.07;;;4.60;;
24435;SDS011;12616;52.470;13.436;2022-11-09T08:16:38;5.00;;;4.60;;
24435;SDS011;12616;52.470;13.436;2022-11-09T08:19:06;7.33;;;5.23;;
24435;SDS011;12616;52.470;13.436;2022-11-09T08:21:33;6.20;;;5.60;;
24435;SDS011;12616;52.470;13.436;2022-11-09T08:24:02;7.27;;;4.83;;
24435;SDS011;12616;52.470;13.436;2022-11-09T08:26:29;6.80;;;5.10;;
24435;SDS011;12616;52.470;13.436;2022-11-09T08:28:56;5.47;;;4.97;;
24435;SDS011;12616;52.470;13.436;2022-11-09T08:31:23;6.90;;;4.70;;
24435;SDS011;12616;52.470;13.436;2022-11-09T08:33:50;6.00;;;4.90;;
24435;SDS011;12616;52.470;13.436;2022-11-09T08:36:18;5.20;;;4.80;;
24435;SDS011;12616;52.470;13.436;2022-11-09T08:38:45;7.00;;;6.03;;
24435;SDS011;12616;52.470;13.436;2022-11-09T08:41:12;8.03;;;5.90;;
24435;SDS011;12616;52.470;13.436;2022-11-09T08:43:39;6.30;;;4.97;;
24435;SDS011;12616;52.470;13.436;2022-11-09T08:46:06;7.07;;;5.20;;
24435;SDS011;12616;52.470;13.436;2022-11-09T08:48:32;6.03;;;4.87;;
24435;SDS011;12616;52.470;13.436;2022-11-09T08:50:59;4.73;;;4.33;;
24435;SDS011;12616;52.470;13.436;2022-11-09T08:53:28;5.20;;;4.80;;
24435;SDS011;12616;52.470;13.436;2022-11-09T08:55:57;8.23;;;4.47;;
24435;SDS011;12616;52.470;13.436;2022-11-09T08:58:24;5.40;;;4.90;;
24435;SDS011;12616;52.470;13.436;2022-11-09T09:00:51;5.23;;;4.83;;
24435;SDS011;12616;52.470;13.436;2022-11-09T09:03:18;8.17;;;5.43;;
24435;SDS011;12616;52.470;13.436;2022-11-09T09:05:50;8.63;;;5.17;;
24435;SDS011;12616;52.470;13.436;2022-11-09T09:08:18;6.00;;;5.10;;
24435;SDS011;12616;52.470;13.436;2022-11-09T09:10:48;7.97;;;4.73;;
24435;SDS011;12616;52.470;13.436;2022-11-09T09:13:15;5.13;;;4.43;;
24435;SDS011;12616;52.470;13.436;2022-11-09T09:15:43;5.77;;;5.10;;
24435;SDS011;12616;52.470;13.436;2022-11-09T09:18:09;7.47;;;5.93;;
24435;SDS011;12616;52.470;13.436;2022-11-09T09:20:36;6.20;;;4.97;;
24435;SDS011;12616;52.470;13.436;2022-11-09T09:23:03;10.77;;;6.20;;
24435;SDS011;12616;52.470;13.436;2022-11-09T09:25:30;6.13;;;4.80;;
24435;SDS011;12616;52.470;13.436;2022-11-09T09:27:59;5.10;;;4.60;;
24435;SDS011;12616;52.470;13.436;2022-11-09T09:30:25;7.70;;;4.90;;
24435;SDS011;12616;52.470;13.436;2022-11-09T09:32:56;8.10;;;5.23;;
24435;SDS011;12616;52.470;13.436;2022-11-09T09:35:23;5.53;;;4.97;;
24435;SDS011;12616;52.470;13.436;2022-11-09T09:37:50;5.73;;;5.00;;
24435;SDS011;12616;52.470;13.436;2022-11-09T09:40:21;5.77;;;5.20;;
24435;SDS011;12616;52.470;13.436;2022-11-09T09:42:50;6.47;;;5.70;;
24435;SDS011;12616;52.470;13.436;2022-11-09T09:45:21;8.30;;;5.67;;
24435;SDS011;12616;52.470;13.436;2022-11-09T09:47:57;6.73;;;5.47;;
24435;SDS011;12616;52.470;13.436;2022-11-09T09:50:28;6.50;;;5.90;;
24435;SDS011;12616;52.470;13.436;2022-11-09T09:53:03;6.20;;;5.30;;
24435;SDS011;12616;52.470;13.436;2022-11-09T09:55:40;6.97;;;6.17;;
24435;SDS011;12616;52.470;13.436;2022-11-09T09:58:10;9.70;;;6.60;;
24435;SDS011;12616;52.470;13.436;2022-11-09T10:00:40;9.40;;;5.83;;
24435;SDS011;12616;52.470;13.436;2022-11-09T10:03:22;8.07;;;5.17;;
24435;SDS011;12616;52.470;13.436;2022-11-09T10:05:53;6.90;;;5.13;;
24435;SDS011;12616;52.470;13.436;2022-11-09T10:08:27;5.73;;;5.23;;
24435;SDS011;12616;52.470;13.436;2022-11-09T10:11:08;8.57;;;5.50;;
24435;SDS011;12616;52.470;13.436;2022-11-09T10:14:03;7.80;;;5.00;;
24435;SDS011;12616;52.470;13.436;2022-11-09T10:16:56;6.50;;;5.10;;
24435;SDS011;12616;52.470;13.436;2022-11-09T10:19:36;9.03;;;5.83;;
24435;SDS011;12616;52.470;13.436;2022-11-09T10:22:28;6.17;;;4.90;;
24435;SDS011;12616;52.470;13.436;2022-11-09T10:25:05;7.47;;;5.17;;
24435;SDS011;12616;52.470;13.436;2022-11-09T10:27:39;7.67;;;5.00;;
24435;SDS011;12616;52.470;13.436;2022-11-09T10:30:11;4.33;;;4.00;;
24435;SDS011;12616;52.470;13.436;2022-11-09T10:32:42;5.93;;;4.40;;
24435;SDS011;12616;52.470;13.436;2022-11-09T10:35:16;6.43;;;4.67;;
24435;SDS011;12616;52.470;13.436;2022-11-09T10:37:45;6.83;;;4.50;;
24435;SDS011;12616;52.470;13.436;2022-11-09T10:40:15;4.90;;;4.10;;
24435;SDS011;12616;52.470;13.436;2022-11-09T10:42:46;7.77;;;4.87;;
24435;SDS011;12616;52.470;13.436;2022-11-09T10:45:16;6.13;;;5.53;;
24435;SDS011;12616;52.470;13.436;2022-11-09T10:47:52;5.23;;;4.80;;
24435;SDS011;12616;52.470;13.436;2022-11-09T10:50:23;6.90;;;5.00;;
24435;SDS011;12616;52.470;13.436;2022-11-09T10:53:00;4.40;;;4.00;;
24435;SDS011;12616;52.470;13.436;2022-11-09T10:55:34;5.80;;;5.10;;
24435;SDS011;12616;52.470;13.436;2022-11-09T10:58:02;6.83;;;4.70;;
24435;SDS011;12616;52.470;13.436;2022-11-09T11:00:55;7.30;;;4.93;;
24435;SDS011;12616;52.470;13.436;2022-11-09T11:03:30;5.53;;;4.83;;
24435;SDS011;12616;52.470;13.436;2022-11-09T11:05:59;5.47;;;4.30;;
24435;SDS011;12616;52.470;13.436;2022-11-09T11:08:30;6.00;;;5.20;;
24435;SDS011;12616;52.470;13.436;2022-11-09T11:11:06;4.33;;;3.93;;
24435;SDS011;12616;52.470;13.436;2022-11-09T11:13:39;4.40;;;4.00;;
24435;SDS011;12616;52.470;13.436;2022-11-09T11:16:13;4.60;;;4.20;;
24435;SDS011;12616;52.470;13.436;2022-11-09T11:18:52;7.50;;;3.77;;
24435;SDS011;12616;52.470;13.436;2022-11-09T11:21:20;4.33;;;3.93;;
24435;SDS011;12616;52.470;13.436;2022-11-09T11:24:02;7.50;;;4.40;;
24435;SDS011;12616;52.470;13.436;2022-11-09T11:26:37;4.23;;;3.83;;
24435;SDS011;12616;52.470;13.436;2022-11-09T11:29:16;5.13;;;4.60;;
24435;SDS011;12616;52.470;13.436;2022-11-09T11:31:53;4.50;;;4.10;;
24435;SDS011;12616;52.470;13.436;2022-11-09T11:34:23;6.70;;;4.50;;
24435;SDS011;12616;52.470;13.436;2022-11-09T11:36:54;4.43;;;4.03;;
24435;SDS011;12616;52.470;13.436;2022-11-09T11:39:34;4.60;;;4.20;;
24435;SDS011;12616;52.470;13.436;2022-11-09T11:42:19;4.70;;;4.30;;
24435;SDS011;12616;52.470;13.436;2022-11-09T11:45:02;3.77;;;3.47;;
24435;SDS011;12616;52.470;13.436;2022-11-09T11:47:41;5.77;;;4.03;;
24435;SDS011;12616;52.470;13.436;2022-11-09T11:50:29;5.27;;;4.33;;
24435;SDS011;12616;52.470;13.436;2022-11-09T11:53:05;4.60;;;4.20;;
24435;SDS011;12616;52.470;13.436;2022-11-09T11:55:45;5.10;;;4.50;;
24435;SDS011;12616;52.470;13.436;2022-11-09T11:58:23;4.93;;;4.50;;
24435;SDS011;12616;52.470;13.436;2022-11-09T12:01:00;3.70;;;3.40;;
24435;SDS011;12616;52.470;13.436;2022-11-09T12:03:38;5.13;;;3.77;;
24435;SDS011;12616;52.470;13.436;2022-11-09T12:06:20;7.93;;;3.77;;
24435;SDS011;12616;52.470;13.436;2022-11-09T12:09:09;3.67;;;3.37;;
24435;SDS011;12616;52.470;13.436;2022-11-09T12:11:52;4.30;;;3.60;;
24435;SDS011;12616;52.470;13.436;2022-11-09T12:14:44;4.20;;;3.67;;
24435;SDS011;12616;52.470;13.436;2022-11-09T12:17:19;4.23;;;3.53;;
24435;SDS011;12616;52.470;13.436;2022-11-09T12:19:56;5.13;;;4.67;;
24435;SDS011;12616;52.470;13.436;2022-11-09T12:22:36;6.30;;;4.40;;
24435;SDS011;12616;52.470;13.436;2022-11-09T12:25:10;3.70;;;3.40;;
24435;SDS011;12616;52.470;13.436;2022-11-09T12:28:10;4.20;;;3.80;;
24435;SDS011;12616;52.470;13.436;2022-11-09T12:31:01;5.20;;;3.83;;
24435;SDS011;12616;52.470;13.436;2022-11-09T12:33:47;3.33;;;3.00;;
24435;SDS011;12616;52.470;13.436;2022-11-09T12:36:25;4.63;;;4.20;;
24435;SDS011;12616;52.470;13.436;2022-11-09T12:39:05;5.73;;;5.23;;
24435;SDS011;12616;52.470;13.436;2022-11-09T12:41:37;6.17;;;5.00;;
24435;SDS011;12616;52.470;13.436;2022-11-09T12:44:09;3.83;;;3.33;;
24435;SDS011;12616;52.470;13.436;2022-11-09T12:46:42;4.50;;;3.50;;
24435;SDS011;12616;52.470;13.436;2022-11-09T12:49:23;9.57;;;8.73;;
24435;SDS011;12616;52.470;13.436;2022-11-09T12:51:56;5.60;;;4.13;;
24435;SDS011;12616;52.470;13.436;2022-11-09T12:54:24;3.70;;;3.40;;
24435;SDS011;12616;52.470;13.436;2022-11-09T12:56:53;7.80;;;4.03;;
24435;SDS011;12616;52.470;13.436;2022-11-09T12:59:32;3.80;;;3.50;;
24435;SDS011;12616;52.470;13.436;2022-11-09T13:02:19;4.93;;;3.30;;
24435;SDS011;12616;52.470;13.436;2022-11-09T13:04:54;3.40;;;3.17;;
24435;SDS011;12616;52.470;13.436;2022-11-09T13:07:27;4.10;;;3.80;;
24435;SDS011;12616;52.470;13.436;2022-11-09T13:09:58;6.10;;;3.90;;
24435;SDS011;12616;52.470;13.436;2022-11-09T13:12:37;4.57;;;4.17;;
24435;SDS011;12616;52.470;13.436;2022-11-09T13:15:26;4.90;;;3.13;;
24435;SDS011;12616;52.470;13.436;2022-11-09T13:17:56;3.83;;;3.53;;
24435;SDS011;12616;52.470;13.436;2022-11-09T13:20:40;5.03;;;4.37;;
24435;SDS011;12616;52.470;13.436;2022-11-09T13:23:28;5.10;;;3.37;;
24435;SDS011;12616;52.470;13.436;2022-11-09T13:25:58;5.10;;;3.40;;
24435;SDS011;12616;52.470;13.436;2022-11-09T13:32:21;7.30;;;3.90;;
24435;SDS011;12616;52.470;13.436;2022-11-09T13:34:50;7.90;;;3.40;;
24435;SDS011;12616;52.470;13.436;2022-11-09T13:37:44;5.47;;;4.27;;
24435;SDS011;12616;52.470;13.436;2022-11-09T13:43:19;4.80;;;3.17;;
24435;SDS011;12616;52.470;13.436;2022-11-09T13:45:51;12.53;;;4.40;;
24435;SDS011;12616;52.470;13.436;2022-11-09T13:48:33;6.03;;;5.23;;
24435;SDS011;12616;52.470;13.436;2022-11-09T13:51:03;7.17;;;4.70;;
24435;SDS011;12616;52.470;13.436;2022-11-09T13:53:47;5.20;;;4.50;;
24435;SDS011;12616;52.470;13.436;2022-11-09T13:56:20;7.57;;;4.50;;
24435;SDS011;12616;52.470;13.436;2022-11-09T13:58:53;6.90;;;3.90;;
24435;SDS011;12616;52.470;13.436;2022-11-09T14:01:28;4.37;;;3.97;;
24435;SDS011;12616;52.470;13.436;2022-11-09T14:03:56;5.23;;;4.67;;
24435;SDS011;12616;52.470;13.436;2022-11-09T14:06:26;6.83;;;4.63;;
24435;SDS011;12616;52.470;13.436;2022-11-09T14:08:55;5.93;;;5.23;;
24435;SDS011;12616;52.470;13.436;2022-11-09T14:11:33;5.83;;;3.50;;
24435;SDS011;12616;52.470;13.436;2022-11-09T14:14:19;3.80;;;3.40;;
24435;SDS011;12616;52.470;13.436;2022-11-09T14:17:00;5.93;;;3.97;;
24435;SDS011;12616;52.470;13.436;2022-11-09T14:19:46;8.63;;;5.27;;
24435;SDS011;12616;52.470;13.436;2022-11-09T14:22:23;12.80;;;6.37;;
24435;SDS011;12616;52.470;13.436;2022-11-09T14:24:50;6.43;;;4.63;;
24435;SDS011;12616;52.470;13.436;2022-11-09T14:27:18;6.30;;;4.47;;
24435;SDS011;12616;52.470;13.436;2022-11-09T14:29:51;5.50;;;4.70;;
24435;SDS011;12616;52.470;13.436;2022-11-09T14:32:23;6.10;;;4.37;;
24435;SDS011;12616;52.470;13.436;2022-11-09T14:34:53;6.60;;;4.30;;
24435;SDS011;12616;52.470;13.436;2022-11-09T14:37:35;5.03;;;4.10;;
24435;SDS011;12616;52.470;13.436;2022-11-09T14:40:14;5.93;;;4.10;;
24435;SDS011;12616;52.470;13.436;2022-11-09T14:42:44;4.53;;;3.30;;
24435;SDS011;12616;52.470;13.436;2022-11-09T14:45:15;3.50;;;3.10;;
24435;SDS011;12616;52.470;13.436;2022-11-09T14:47:43;4.67;;;3.50;;
24435;SDS011;12616;52.470;13.436;2022-11-09T14:50:13;3.70;;;3.40;;
24435;SDS011;12616;52.470;13.436;2022-11-09T14:52:42;4.93;;;3.20;;
24435;SDS011;12616;52.470;13.436;2022-11-09T14:55:13;3.33;;;3.03;;
24435;SDS011;12616;52.470;13.436;2022-11-09T14:57:43;4.53;;;4.13;;
24435;SDS011;12616;52.470;13.436;2022-11-09T15:00:26;7.00;;;3.80;;
24435;SDS011;12616;52.470;13.436;2022-11-09T15:02:57;7.97;;;4.93;;
24435;SDS011;12616;52.470;13.436;2022-11-09T15:05:35;5.90;;;5.23;;
24435;SDS011;12616;52.470;13.436;2022-11-09T15:08:04;5.10;;;4.60;;
24435;SDS011;12616;52.470;13.436;2022-11-09T15:10:40;4.10;;;3.70;;
24435;SDS011;12616;52.470;13.436;2022-11-09T15:13:07;4.97;;;3.90;;
24435;SDS011;12616;52.470;13.436;2022-11-09T15:18:58;5.77;;;4.27;;
24435;SDS011;12616;52.470;13.436;2022-11-09T15:21:33;4.73;;;4.30;;
24435;SDS011;12616;52.470;13.436;2022-11-09T15:24:13;5.13;;;4.63;;
24435;SDS011;12616;52.470;13.436;2022-11-09T15:26:49;6.73;;;4.60;;